sensor_id;sensor_type;location;lat;lon;timestamp;P1;durP1;ratioP1;P2;durP2;ratioP2
15629;SDS011;7914;50.842;0.166;2023-04-25T00:02:18;10.45;;;3.60;;
15629;SDS011;7914;50.842;0.166;2023-04-25T00:04:44;8.40;;;3.67;;
15629;SDS011;7914;50.842;0.166;2023-04-25T00:07:10;10.68;;;3.78;;
15629;SDS011;7914;50.842;0.166;2023-04-25T00:09:36;9.73;;;3.58;;
15629;SDS011;7914;50.842;0.166;2023-04-25T00:12:01;14.50;;;4.43;;
15629;SDS011;7914;50.842;0.166;2023-04-25T00:14:28;13.68;;;3.97;;
15629;SDS011;7914;50.842;0.166;2023-04-25T00:16:55;15.10;;;3.95;;
15629;SDS011;7914;50.842;0.166;2023-04-25T00:19:21;17.90;;;4.35;;
15629;SDS011;7914;50.842;0.166;2023-04-25T00:21:46;17.42;;;3.70;;
15629;SDS011;7914;50.842;0.166;2023-04-25T00:24:12;13.73;;;3.20;;
15629;SDS011;7914;50.842;0.166;2023-04-25T00:26:38;11.65;;;3.38;;
15629;SDS011;7914;50.842;0.166;2023-04-25T00:29:04;14.98;;;3.30;;
15629;SDS011;7914;50.842;0.166;2023-04-25T00:31:30;13.65;;;2.67;;
15629;SDS011;7914;50.842;0.166;2023-04-25T00:33:55;18.35;;;3.90;;
15629;SDS011;7914;50.842;0.166;2023-04-25T00:36:21;18.48;;;4.18;;
15629;SDS011;7914;50.842;0.166;2023-04-25T00:38:47;16.75;;;4.45;;
15629;SDS011;7914;50.842;0.166;2023-04-25T00:41:13;9.35;;;3.72;;
15629;SDS011;7914;50.842;0.166;2023-04-25T00:43:39;12.48;;;4.80;;
15629;SDS011;7914;50.842;0.166;2023-04-25T00:46:05;11.57;;;3.60;;
15629;SDS011;7914;50.842;0.166;2023-04-25T00:48:31;11.98;;;3.75;;
15629;SDS011;7914;50.842;0.166;2023-04-25T00:50:57;13.65;;;3.17;;
15629;SDS011;7914;50.842;0.166;2023-04-25T00:53:25;14.20;;;3.00;;
15629;SDS011;7914;50.842;0.166;2023-04-25T00:55:52;10.98;;;3.47;;
15629;SDS011;7914;50.842;0.166;2023-04-25T00:58:21;9.40;;;3.47;;
15629;SDS011;7914;50.842;0.166;2023-04-25T01:00:49;13.80;;;3.30;;
15629;SDS011;7914;50.842;0.166;2023-04-25T01:03:17;17.35;;;4.13;;
15629;SDS011;7914;50.842;0.166;2023-04-25T01:05:45;15.77;;;3.50;;
15629;SDS011;7914;50.842;0.166;2023-04-25T01:08:11;14.75;;;3.35;;
15629;SDS011;7914;50.842;0.166;2023-04-25T01:10:37;11.70;;;2.97;;
15629;SDS011;7914;50.842;0.166;2023-04-25T01:13:03;16.60;;;3.78;;
15629;SDS011;7914;50.842;0.166;2023-04-25T01:15:29;7.78;;;3.15;;
15629;SDS011;7914;50.842;0.166;2023-04-25T01:17:55;11.02;;;3.33;;
15629;SDS011;7914;50.842;0.166;2023-04-25T01:20:21;9.77;;;2.70;;
15629;SDS011;7914;50.842;0.166;2023-04-25T01:22:48;13.88;;;3.40;;
15629;SDS011;7914;50.842;0.166;2023-04-25T01:25:15;9.18;;;3.15;;
15629;SDS011;7914;50.842;0.166;2023-04-25T01:27:42;8.27;;;3.83;;
15629;SDS011;7914;50.842;0.166;2023-04-25T01:30:08;16.63;;;3.92;;
15629;SDS011;7914;50.842;0.166;2023-04-25T01:32:34;13.63;;;2.95;;
15629;SDS011;7914;50.842;0.166;2023-04-25T01:35:10;10.90;;;3.80;;
15629;SDS011;7914;50.842;0.166;2023-04-25T01:37:40;12.63;;;2.92;;
15629;SDS011;7914;50.842;0.166;2023-04-25T01:40:08;12.55;;;3.85;;
15629;SDS011;7914;50.842;0.166;2023-04-25T01:42:36;9.45;;;3.00;;
15629;SDS011;7914;50.842;0.166;2023-04-25T01:45:03;9.20;;;2.65;;
15629;SDS011;7914;50.842;0.166;2023-04-25T01:47:29;21.20;;;4.30;;
15629;SDS011;7914;50.842;0.166;2023-04-25T01:49:55;18.65;;;3.28;;
15629;SDS011;7914;50.842;0.166;2023-04-25T01:52:21;6.82;;;2.60;;
15629;SDS011;7914;50.842;0.166;2023-04-25T01:54:46;14.43;;;3.00;;
15629;SDS011;7914;50.842;0.166;2023-04-25T01:57:14;9.82;;;3.03;;
15629;SDS011;7914;50.842;0.166;2023-04-25T01:59:39;12.15;;;2.90;;
15629;SDS011;7914;50.842;0.166;2023-04-25T02:02:06;10.77;;;2.70;;
15629;SDS011;7914;50.842;0.166;2023-04-25T02:04:32;11.55;;;2.50;;
15629;SDS011;7914;50.842;0.166;2023-04-25T02:06:58;13.32;;;3.50;;
15629;SDS011;7914;50.842;0.166;2023-04-25T02:09:24;15.50;;;3.20;;
15629;SDS011;7914;50.842;0.166;2023-04-25T02:11:50;14.52;;;2.90;;
15629;SDS011;7914;50.842;0.166;2023-04-25T02:14:15;12.95;;;2.22;;
15629;SDS011;7914;50.842;0.166;2023-04-25T02:16:41;20.25;;;4.10;;
15629;SDS011;7914;50.842;0.166;2023-04-25T02:19:08;10.77;;;2.72;;
15629;SDS011;7914;50.842;0.166;2023-04-25T02:21:35;19.27;;;3.10;;
15629;SDS011;7914;50.842;0.166;2023-04-25T02:24:01;12.02;;;2.97;;
15629;SDS011;7914;50.842;0.166;2023-04-25T02:26:27;10.00;;;2.47;;
15629;SDS011;7914;50.842;0.166;2023-04-25T02:28:53;16.45;;;3.17;;
15629;SDS011;7914;50.842;0.166;2023-04-25T02:31:19;11.85;;;2.97;;
15629;SDS011;7914;50.842;0.166;2023-04-25T02:33:45;12.60;;;2.97;;
15629;SDS011;7914;50.842;0.166;2023-04-25T02:36:11;10.98;;;2.53;;
15629;SDS011;7914;50.842;0.166;2023-04-25T02:38:37;11.82;;;3.95;;
15629;SDS011;7914;50.842;0.166;2023-04-25T02:41:03;16.10;;;3.45;;
15629;SDS011;7914;50.842;0.166;2023-04-25T02:43:29;17.20;;;3.25;;
15629;SDS011;7914;50.842;0.166;2023-04-25T02:45:54;9.45;;;2.75;;
15629;SDS011;7914;50.842;0.166;2023-04-25T02:48:20;12.68;;;3.00;;
15629;SDS011;7914;50.842;0.166;2023-04-25T02:50:46;10.77;;;2.67;;
15629;SDS011;7914;50.842;0.166;2023-04-25T02:53:11;7.60;;;2.97;;
15629;SDS011;7914;50.842;0.166;2023-04-25T02:55:37;12.65;;;3.70;;
15629;SDS011;7914;50.842;0.166;2023-04-25T02:58:03;16.70;;;3.20;;
15629;SDS011;7914;50.842;0.166;2023-04-25T03:00:29;9.40;;;3.08;;
15629;SDS011;7914;50.842;0.166;2023-04-25T03:02:54;8.75;;;3.42;;
15629;SDS011;7914;50.842;0.166;2023-04-25T03:05:20;9.80;;;3.15;;
15629;SDS011;7914;50.842;0.166;2023-04-25T03:07:46;8.70;;;2.47;;
15629;SDS011;7914;50.842;0.166;2023-04-25T03:10:12;12.02;;;3.45;;
15629;SDS011;7914;50.842;0.166;2023-04-25T03:12:38;16.45;;;4.20;;
15629;SDS011;7914;50.842;0.166;2023-04-25T03:15:04;9.05;;;2.78;;
15629;SDS011;7914;50.842;0.166;2023-04-25T03:17:30;10.57;;;3.38;;
15629;SDS011;7914;50.842;0.166;2023-04-25T03:19:56;14.23;;;3.13;;
15629;SDS011;7914;50.842;0.166;2023-04-25T03:22:22;13.38;;;2.83;;
15629;SDS011;7914;50.842;0.166;2023-04-25T03:24:49;9.43;;;2.35;;
15629;SDS011;7914;50.842;0.166;2023-04-25T03:27:15;10.85;;;2.88;;
15629;SDS011;7914;50.842;0.166;2023-04-25T03:29:41;14.77;;;3.25;;
15629;SDS011;7914;50.842;0.166;2023-04-25T03:32:06;11.93;;;3.08;;
15629;SDS011;7914;50.842;0.166;2023-04-25T03:34:32;13.00;;;2.83;;
15629;SDS011;7914;50.842;0.166;2023-04-25T03:36:58;11.05;;;2.88;;
15629;SDS011;7914;50.842;0.166;2023-04-25T03:39:25;12.55;;;3.25;;
15629;SDS011;7914;50.842;0.166;2023-04-25T03:41:50;11.85;;;3.00;;
15629;SDS011;7914;50.842;0.166;2023-04-25T03:44:16;9.57;;;2.67;;
15629;SDS011;7914;50.842;0.166;2023-04-25T03:46:42;12.45;;;3.38;;
15629;SDS011;7914;50.842;0.166;2023-04-25T03:49:07;15.40;;;3.15;;
15629;SDS011;7914;50.842;0.166;2023-04-25T03:51:33;11.05;;;2.70;;
15629;SDS011;7914;50.842;0.166;2023-04-25T03:53:59;12.05;;;2.70;;
15629;SDS011;7914;50.842;0.166;2023-04-25T03:56:25;7.45;;;2.65;;
15629;SDS011;7914;50.842;0.166;2023-04-25T03:58:50;12.60;;;3.25;;
15629;SDS011;7914;50.842;0.166;2023-04-25T04:01:16;8.00;;;2.10;;
15629;SDS011;7914;50.842;0.166;2023-04-25T04:03:42;16.25;;;2.72;;
15629;SDS011;7914;50.842;0.166;2023-04-25T04:06:08;8.77;;;2.33;;
15629;SDS011;7914;50.842;0.166;2023-04-25T04:08:34;11.57;;;2.55;;
15629;SDS011;7914;50.842;0.166;2023-04-25T04:11:00;17.88;;;2.97;;
15629;SDS011;7914;50.842;0.166;2023-04-25T04:13:26;14.05;;;3.22;;
15629;SDS011;7914;50.842;0.166;2023-04-25T04:15:53;15.20;;;2.50;;
15629;SDS011;7914;50.842;0.166;2023-04-25T04:18:19;17.92;;;2.53;;
15629;SDS011;7914;50.842;0.166;2023-04-25T04:20:45;11.15;;;2.53;;
15629;SDS011;7914;50.842;0.166;2023-04-25T04:23:10;8.27;;;2.05;;
15629;SDS011;7914;50.842;0.166;2023-04-25T04:25:36;9.07;;;2.45;;
15629;SDS011;7914;50.842;0.166;2023-04-25T04:28:02;9.93;;;2.22;;
15629;SDS011;7914;50.842;0.166;2023-04-25T04:30:28;13.23;;;2.60;;
15629;SDS011;7914;50.842;0.166;2023-04-25T04:32:58;11.70;;;2.40;;
15629;SDS011;7914;50.842;0.166;2023-04-25T04:35:25;11.27;;;2.60;;
15629;SDS011;7914;50.842;0.166;2023-04-25T04:37:51;10.80;;;2.70;;
15629;SDS011;7914;50.842;0.166;2023-04-25T04:40:18;12.07;;;2.35;;
15629;SDS011;7914;50.842;0.166;2023-04-25T04:42:44;11.77;;;2.65;;
15629;SDS011;7914;50.842;0.166;2023-04-25T04:45:16;10.48;;;2.70;;
15629;SDS011;7914;50.842;0.166;2023-04-25T04:47:42;10.82;;;2.63;;
15629;SDS011;7914;50.842;0.166;2023-04-25T04:50:08;8.43;;;2.10;;
15629;SDS011;7914;50.842;0.166;2023-04-25T04:52:35;7.45;;;2.03;;
15629;SDS011;7914;50.842;0.166;2023-04-25T04:55:02;12.95;;;2.50;;
15629;SDS011;7914;50.842;0.166;2023-04-25T04:57:28;12.13;;;2.47;;
15629;SDS011;7914;50.842;0.166;2023-04-25T04:59:54;9.65;;;2.50;;
15629;SDS011;7914;50.842;0.166;2023-04-25T05:02:20;11.35;;;2.47;;
15629;SDS011;7914;50.842;0.166;2023-04-25T05:04:46;10.63;;;2.45;;
15629;SDS011;7914;50.842;0.166;2023-04-25T05:07:12;9.10;;;2.13;;
15629;SDS011;7914;50.842;0.166;2023-04-25T05:09:38;11.00;;;2.30;;
15629;SDS011;7914;50.842;0.166;2023-04-25T05:12:04;16.63;;;2.83;;
15629;SDS011;7914;50.842;0.166;2023-04-25T05:14:30;10.48;;;2.03;;
15629;SDS011;7914;50.842;0.166;2023-04-25T05:16:55;7.32;;;2.17;;
15629;SDS011;7914;50.842;0.166;2023-04-25T05:19:21;7.90;;;2.10;;
15629;SDS011;7914;50.842;0.166;2023-04-25T05:21:47;10.63;;;2.67;;
15629;SDS011;7914;50.842;0.166;2023-04-25T05:24:12;6.75;;;1.80;;
15629;SDS011;7914;50.842;0.166;2023-04-25T05:26:38;9.00;;;2.30;;
15629;SDS011;7914;50.842;0.166;2023-04-25T05:29:04;9.90;;;2.40;;
15629;SDS011;7914;50.842;0.166;2023-04-25T05:31:30;10.02;;;2.45;;
15629;SDS011;7914;50.842;0.166;2023-04-25T05:33:57;10.98;;;2.53;;
15629;SDS011;7914;50.842;0.166;2023-04-25T05:36:22;8.30;;;2.22;;
15629;SDS011;7914;50.842;0.166;2023-04-25T05:38:48;13.30;;;2.25;;
15629;SDS011;7914;50.842;0.166;2023-04-25T05:41:14;10.68;;;2.38;;
15629;SDS011;7914;50.842;0.166;2023-04-25T05:43:39;10.07;;;2.17;;
15629;SDS011;7914;50.842;0.166;2023-04-25T05:46:10;10.75;;;2.03;;
15629;SDS011;7914;50.842;0.166;2023-04-25T05:48:36;10.50;;;2.83;;
15629;SDS011;7914;50.842;0.166;2023-04-25T05:51:03;6.15;;;1.70;;
15629;SDS011;7914;50.842;0.166;2023-04-25T05:53:28;8.85;;;2.03;;
15629;SDS011;7914;50.842;0.166;2023-04-25T05:55:54;7.40;;;1.73;;
15629;SDS011;7914;50.842;0.166;2023-04-25T05:58:20;8.25;;;2.63;;
15629;SDS011;7914;50.842;0.166;2023-04-25T06:00:46;8.90;;;2.58;;
15629;SDS011;7914;50.842;0.166;2023-04-25T06:03:12;9.68;;;2.03;;
15629;SDS011;7914;50.842;0.166;2023-04-25T06:05:43;11.48;;;2.47;;
15629;SDS011;7914;50.842;0.166;2023-04-25T06:08:09;9.45;;;2.50;;
15629;SDS011;7914;50.842;0.166;2023-04-25T06:10:35;7.00;;;1.98;;
15629;SDS011;7914;50.842;0.166;2023-04-25T06:13:01;14.43;;;2.50;;
15629;SDS011;7914;50.842;0.166;2023-04-25T06:15:27;8.13;;;2.40;;
15629;SDS011;7914;50.842;0.166;2023-04-25T06:17:53;10.02;;;2.38;;
15629;SDS011;7914;50.842;0.166;2023-04-25T06:20:19;8.90;;;2.03;;
15629;SDS011;7914;50.842;0.166;2023-04-25T06:22:48;11.32;;;2.35;;
15629;SDS011;7914;50.842;0.166;2023-04-25T06:25:15;7.72;;;2.13;;
15629;SDS011;7914;50.842;0.166;2023-04-25T06:27:41;6.00;;;2.38;;
15629;SDS011;7914;50.842;0.166;2023-04-25T06:30:07;6.88;;;2.40;;
15629;SDS011;7914;50.842;0.166;2023-04-25T06:32:33;10.32;;;2.63;;
15629;SDS011;7914;50.842;0.166;2023-04-25T06:34:59;10.70;;;2.30;;
15629;SDS011;7914;50.842;0.166;2023-04-25T06:37:25;9.10;;;2.55;;
15629;SDS011;7914;50.842;0.166;2023-04-25T06:39:51;7.68;;;1.88;;
15629;SDS011;7914;50.842;0.166;2023-04-25T06:42:17;11.02;;;2.13;;
15629;SDS011;7914;50.842;0.166;2023-04-25T06:44:43;7.10;;;1.85;;
15629;SDS011;7914;50.842;0.166;2023-04-25T06:47:08;9.63;;;2.15;;
15629;SDS011;7914;50.842;0.166;2023-04-25T06:49:34;6.88;;;1.83;;
15629;SDS011;7914;50.842;0.166;2023-04-25T06:52:00;7.50;;;1.90;;
15629;SDS011;7914;50.842;0.166;2023-04-25T06:54:26;11.38;;;2.20;;
15629;SDS011;7914;50.842;0.166;2023-04-25T06:56:54;11.30;;;2.33;;
15629;SDS011;7914;50.842;0.166;2023-04-25T06:59:20;4.43;;;1.33;;
15629;SDS011;7914;50.842;0.166;2023-04-25T07:01:46;9.10;;;2.03;;
15629;SDS011;7914;50.842;0.166;2023-04-25T07:04:12;8.70;;;2.53;;
15629;SDS011;7914;50.842;0.166;2023-04-25T07:06:37;12.55;;;2.08;;
15629;SDS011;7914;50.842;0.166;2023-04-25T07:09:07;7.63;;;1.73;;
15629;SDS011;7914;50.842;0.166;2023-04-25T07:11:35;6.75;;;1.65;;
15629;SDS011;7914;50.842;0.166;2023-04-25T07:14:01;10.45;;;2.10;;
15629;SDS011;7914;50.842;0.166;2023-04-25T07:16:27;12.23;;;1.85;;
15629;SDS011;7914;50.842;0.166;2023-04-25T07:18:53;7.57;;;1.90;;
15629;SDS011;7914;50.842;0.166;2023-04-25T07:21:19;8.02;;;1.70;;
15629;SDS011;7914;50.842;0.166;2023-04-25T07:23:44;6.47;;;1.80;;
15629;SDS011;7914;50.842;0.166;2023-04-25T07:26:10;7.00;;;2.22;;
15629;SDS011;7914;50.842;0.166;2023-04-25T07:28:36;8.63;;;2.20;;
15629;SDS011;7914;50.842;0.166;2023-04-25T07:31:02;6.40;;;1.45;;
15629;SDS011;7914;50.842;0.166;2023-04-25T07:33:28;11.23;;;2.50;;
15629;SDS011;7914;50.842;0.166;2023-04-25T07:35:53;11.13;;;2.85;;
15629;SDS011;7914;50.842;0.166;2023-04-25T07:38:20;7.18;;;1.80;;
15629;SDS011;7914;50.842;0.166;2023-04-25T07:40:49;9.90;;;2.30;;
15629;SDS011;7914;50.842;0.166;2023-04-25T07:45:45;6.90;;;1.55;;
15629;SDS011;7914;50.842;0.166;2023-04-25T07:48:16;9.25;;;1.80;;
15629;SDS011;7914;50.842;0.166;2023-04-25T07:50:43;3.85;;;1.13;;
15629;SDS011;7914;50.842;0.166;2023-04-25T07:53:09;11.23;;;1.92;;
15629;SDS011;7914;50.842;0.166;2023-04-25T07:55:35;6.63;;;1.30;;
15629;SDS011;7914;50.842;0.166;2023-04-25T07:58:01;7.15;;;1.83;;
15629;SDS011;7914;50.842;0.166;2023-04-25T08:00:28;11.30;;;1.67;;
15629;SDS011;7914;50.842;0.166;2023-04-25T08:02:54;4.63;;;1.50;;
15629;SDS011;7914;50.842;0.166;2023-04-25T08:05:20;10.23;;;1.52;;
15629;SDS011;7914;50.842;0.166;2023-04-25T08:07:46;6.63;;;1.83;;
15629;SDS011;7914;50.842;0.166;2023-04-25T08:10:11;9.10;;;1.73;;
15629;SDS011;7914;50.842;0.166;2023-04-25T08:12:37;7.95;;;1.90;;
15629;SDS011;7914;50.842;0.166;2023-04-25T08:15:03;9.85;;;1.77;;
15629;SDS011;7914;50.842;0.166;2023-04-25T08:17:30;10.98;;;1.80;;
15629;SDS011;7914;50.842;0.166;2023-04-25T08:19:56;11.02;;;1.90;;
15629;SDS011;7914;50.842;0.166;2023-04-25T08:22:22;7.03;;;1.90;;
15629;SDS011;7914;50.842;0.166;2023-04-25T08:24:47;10.15;;;1.65;;
15629;SDS011;7914;50.842;0.166;2023-04-25T08:27:13;8.10;;;1.55;;
15629;SDS011;7914;50.842;0.166;2023-04-25T08:29:39;6.40;;;1.55;;
15629;SDS011;7914;50.842;0.166;2023-04-25T08:32:05;10.13;;;1.83;;
15629;SDS011;7914;50.842;0.166;2023-04-25T08:34:30;6.10;;;1.67;;
15629;SDS011;7914;50.842;0.166;2023-04-25T08:36:56;9.75;;;1.55;;
15629;SDS011;7914;50.842;0.166;2023-04-25T08:39:22;11.27;;;2.10;;
15629;SDS011;7914;50.842;0.166;2023-04-25T08:41:47;4.15;;;1.33;;
15629;SDS011;7914;50.842;0.166;2023-04-25T08:44:13;6.82;;;1.60;;
15629;SDS011;7914;50.842;0.166;2023-04-25T08:46:41;4.63;;;1.50;;
15629;SDS011;7914;50.842;0.166;2023-04-25T08:49:07;9.88;;;2.28;;
15629;SDS011;7914;50.842;0.166;2023-04-25T08:51:44;5.60;;;1.40;;
15629;SDS011;7914;50.842;0.166;2023-04-25T08:54:14;10.00;;;1.70;;
15629;SDS011;7914;50.842;0.166;2023-04-25T08:56:40;3.83;;;1.10;;
15629;SDS011;7914;50.842;0.166;2023-04-25T08:59:09;7.75;;;1.98;;
15629;SDS011;7914;50.842;0.166;2023-04-25T09:01:36;5.57;;;1.40;;
15629;SDS011;7914;50.842;0.166;2023-04-25T09:04:02;7.78;;;1.42;;
15629;SDS011;7914;50.842;0.166;2023-04-25T09:06:29;4.10;;;1.45;;
15629;SDS011;7914;50.842;0.166;2023-04-25T09:09:05;8.70;;;1.67;;
15629;SDS011;7914;50.842;0.166;2023-04-25T09:11:32;4.82;;;1.35;;
15629;SDS011;7914;50.842;0.166;2023-04-25T09:14:15;4.35;;;0.80;;
15629;SDS011;7914;50.842;0.166;2023-04-25T09:19:29;7.63;;;1.42;;
15629;SDS011;7914;50.842;0.166;2023-04-25T09:21:58;7.78;;;1.58;;
15629;SDS011;7914;50.842;0.166;2023-04-25T09:24:38;4.15;;;1.10;;
15629;SDS011;7914;50.842;0.166;2023-04-25T09:27:10;6.10;;;1.33;;
15629;SDS011;7914;50.842;0.166;2023-04-25T09:29:38;5.68;;;1.60;;
15629;SDS011;7914;50.842;0.166;2023-04-25T09:34:44;10.70;;;1.75;;
15629;SDS011;7914;50.842;0.166;2023-04-25T09:37:18;3.95;;;1.20;;
15629;SDS011;7914;50.842;0.166;2023-04-25T09:39:58;7.00;;;1.65;;
15629;SDS011;7914;50.842;0.166;2023-04-25T09:42:28;5.55;;;1.58;;
15629;SDS011;7914;50.842;0.166;2023-04-25T09:44:56;7.65;;;1.40;;
15629;SDS011;7914;50.842;0.166;2023-04-25T09:47:25;4.55;;;1.30;;
15629;SDS011;7914;50.842;0.166;2023-04-25T09:49:52;6.20;;;1.30;;
15629;SDS011;7914;50.842;0.166;2023-04-25T09:52:19;6.43;;;1.40;;
15629;SDS011;7914;50.842;0.166;2023-04-25T09:54:49;3.85;;;1.42;;
15629;SDS011;7914;50.842;0.166;2023-04-25T09:57:19;6.97;;;1.30;;
15629;SDS011;7914;50.842;0.166;2023-04-25T09:59:52;3.72;;;1.13;;
15629;SDS011;7914;50.842;0.166;2023-04-25T10:02:24;8.20;;;1.67;;
15629;SDS011;7914;50.842;0.166;2023-04-25T10:04:51;6.05;;;1.48;;
15629;SDS011;7914;50.842;0.166;2023-04-25T10:07:20;5.30;;;1.35;;
15629;SDS011;7914;50.842;0.166;2023-04-25T10:09:50;4.75;;;1.30;;
15629;SDS011;7914;50.842;0.166;2023-04-25T10:12:31;5.32;;;1.50;;
15629;SDS011;7914;50.842;0.166;2023-04-25T10:14:58;5.80;;;1.42;;
15629;SDS011;7914;50.842;0.166;2023-04-25T10:17:28;7.90;;;2.13;;
15629;SDS011;7914;50.842;0.166;2023-04-25T10:19:54;8.20;;;1.88;;
15629;SDS011;7914;50.842;0.166;2023-04-25T10:22:29;4.43;;;1.00;;
15629;SDS011;7914;50.842;0.166;2023-04-25T10:24:58;7.07;;;1.50;;
15629;SDS011;7914;50.842;0.166;2023-04-25T10:27:24;9.90;;;1.92;;
15629;SDS011;7914;50.842;0.166;2023-04-25T10:30:08;6.25;;;1.10;;
15629;SDS011;7914;50.842;0.166;2023-04-25T10:32:37;5.95;;;1.50;;
15629;SDS011;7914;50.842;0.166;2023-04-25T10:35:16;6.60;;;2.03;;
15629;SDS011;7914;50.842;0.166;2023-04-25T10:37:57;5.25;;;1.40;;
15629;SDS011;7914;50.842;0.166;2023-04-25T10:40:36;4.47;;;1.17;;
15629;SDS011;7914;50.842;0.166;2023-04-25T10:48:57;7.32;;;1.75;;
15629;SDS011;7914;50.842;0.166;2023-04-25T10:51:25;6.15;;;1.40;;
15629;SDS011;7914;50.842;0.166;2023-04-25T10:56:21;3.33;;;1.25;;
15629;SDS011;7914;50.842;0.166;2023-04-25T10:58:48;4.55;;;1.50;;
15629;SDS011;7914;50.842;0.166;2023-04-25T11:01:14;8.40;;;1.75;;
15629;SDS011;7914;50.842;0.166;2023-04-25T11:03:44;4.57;;;1.48;;
15629;SDS011;7914;50.842;0.166;2023-04-25T11:06:23;4.10;;;1.40;;
15629;SDS011;7914;50.842;0.166;2023-04-25T11:09:02;7.53;;;1.30;;
15629;SDS011;7914;50.842;0.166;2023-04-25T11:11:36;7.72;;;1.25;;
15629;SDS011;7914;50.842;0.166;2023-04-25T11:14:02;8.82;;;1.65;;
15629;SDS011;7914;50.842;0.166;2023-04-25T11:16:27;4.50;;;1.25;;
15629;SDS011;7914;50.842;0.166;2023-04-25T11:18:53;4.40;;;1.55;;
15629;SDS011;7914;50.842;0.166;2023-04-25T11:23:47;6.60;;;1.27;;
15629;SDS011;7914;50.842;0.166;2023-04-25T11:26:13;5.80;;;1.40;;
15629;SDS011;7914;50.842;0.166;2023-04-25T11:28:40;6.38;;;1.65;;
15629;SDS011;7914;50.842;0.166;2023-04-25T11:31:06;7.95;;;1.88;;
15629;SDS011;7914;50.842;0.166;2023-04-25T11:33:31;5.10;;;1.23;;
15629;SDS011;7914;50.842;0.166;2023-04-25T11:35:57;5.72;;;1.20;;
15629;SDS011;7914;50.842;0.166;2023-04-25T11:38:24;6.75;;;1.60;;
15629;SDS011;7914;50.842;0.166;2023-04-25T11:40:51;5.82;;;1.20;;
15629;SDS011;7914;50.842;0.166;2023-04-25T11:43:17;4.90;;;1.25;;
15629;SDS011;7914;50.842;0.166;2023-04-25T11:45:46;4.43;;;1.77;;
15629;SDS011;7914;50.842;0.166;2023-04-25T11:48:15;5.00;;;1.20;;
15629;SDS011;7914;50.842;0.166;2023-04-25T11:50:42;5.00;;;1.50;;
15629;SDS011;7914;50.842;0.166;2023-04-25T11:53:08;6.30;;;1.63;;
15629;SDS011;7914;50.842;0.166;2023-04-25T11:55:33;3.50;;;1.25;;
15629;SDS011;7914;50.842;0.166;2023-04-25T11:58:00;6.30;;;1.60;;
15629;SDS011;7914;50.842;0.166;2023-04-25T12:00:27;5.18;;;1.40;;
15629;SDS011;7914;50.842;0.166;2023-04-25T12:02:53;6.03;;;1.88;;
15629;SDS011;7914;50.842;0.166;2023-04-25T12:05:23;4.63;;;1.20;;
15629;SDS011;7914;50.842;0.166;2023-04-25T12:07:50;6.97;;;1.40;;
15629;SDS011;7914;50.842;0.166;2023-04-25T12:10:16;6.20;;;2.33;;
15629;SDS011;7914;50.842;0.166;2023-04-25T12:12:44;4.28;;;1.27;;
15629;SDS011;7914;50.842;0.166;2023-04-25T12:15:17;6.35;;;1.77;;
15629;SDS011;7914;50.842;0.166;2023-04-25T12:17:48;9.07;;;1.60;;
15629;SDS011;7914;50.842;0.166;2023-04-25T12:20:16;7.22;;;1.77;;
15629;SDS011;7914;50.842;0.166;2023-04-25T12:22:45;6.35;;;1.30;;
15629;SDS011;7914;50.842;0.166;2023-04-25T12:25:20;6.15;;;1.60;;
15629;SDS011;7914;50.842;0.166;2023-04-25T12:30:52;3.15;;;1.33;;
15629;SDS011;7914;50.842;0.166;2023-04-25T12:33:18;4.20;;;1.40;;
15629;SDS011;7914;50.842;0.166;2023-04-25T12:35:44;4.15;;;1.10;;
15629;SDS011;7914;50.842;0.166;2023-04-25T12:38:10;4.28;;;1.40;;
15629;SDS011;7914;50.842;0.166;2023-04-25T12:40:36;3.92;;;1.00;;
15629;SDS011;7914;50.842;0.166;2023-04-25T12:43:02;7.53;;;1.52;;
15629;SDS011;7914;50.842;0.166;2023-04-25T12:45:27;6.32;;;1.40;;
15629;SDS011;7914;50.842;0.166;2023-04-25T12:47:53;5.80;;;1.38;;
15629;SDS011;7914;50.842;0.166;2023-04-25T12:50:19;3.47;;;1.30;;
15629;SDS011;7914;50.842;0.166;2023-04-25T12:52:44;5.63;;;1.27;;
15629;SDS011;7914;50.842;0.166;2023-04-25T12:55:11;4.60;;;1.30;;
15629;SDS011;7914;50.842;0.166;2023-04-25T12:57:36;5.50;;;1.20;;
15629;SDS011;7914;50.842;0.166;2023-04-25T13:00:02;5.22;;;1.40;;
15629;SDS011;7914;50.842;0.166;2023-04-25T13:02:29;6.20;;;2.03;;
15629;SDS011;7914;50.842;0.166;2023-04-25T13:04:55;6.80;;;1.48;;
15629;SDS011;7914;50.842;0.166;2023-04-25T13:07:20;8.25;;;1.35;;
15629;SDS011;7914;50.842;0.166;2023-04-25T13:09:46;3.70;;;1.30;;
15629;SDS011;7914;50.842;0.166;2023-04-25T13:12:11;9.30;;;1.70;;
15629;SDS011;7914;50.842;0.166;2023-04-25T13:14:37;8.95;;;1.48;;
15629;SDS011;7914;50.842;0.166;2023-04-25T13:17:03;6.82;;;1.70;;
15629;SDS011;7914;50.842;0.166;2023-04-25T13:19:29;8.13;;;1.90;;
15629;SDS011;7914;50.842;0.166;2023-04-25T13:21:55;4.55;;;1.30;;
15629;SDS011;7914;50.842;0.166;2023-04-25T13:24:21;6.75;;;1.88;;
15629;SDS011;7914;50.842;0.166;2023-04-25T13:26:47;5.38;;;1.60;;
15629;SDS011;7914;50.842;0.166;2023-04-25T13:29:12;4.95;;;1.83;;
15629;SDS011;7914;50.842;0.166;2023-04-25T13:31:38;7.38;;;1.50;;
15629;SDS011;7914;50.842;0.166;2023-04-25T13:34:04;3.25;;;1.30;;
15629;SDS011;7914;50.842;0.166;2023-04-25T13:36:29;6.90;;;1.50;;
15629;SDS011;7914;50.842;0.166;2023-04-25T13:38:56;4.65;;;1.23;;
15629;SDS011;7914;50.842;0.166;2023-04-25T13:41:22;6.10;;;1.55;;
15629;SDS011;7914;50.842;0.166;2023-04-25T13:43:48;5.13;;;1.40;;
15629;SDS011;7914;50.842;0.166;2023-04-25T13:46:14;6.57;;;1.40;;
15629;SDS011;7914;50.842;0.166;2023-04-25T13:48:40;6.07;;;1.42;;
15629;SDS011;7914;50.842;0.166;2023-04-25T13:51:11;8.77;;;1.48;;
15629;SDS011;7914;50.842;0.166;2023-04-25T13:53:37;4.43;;;1.38;;
15629;SDS011;7914;50.842;0.166;2023-04-25T13:56:03;10.13;;;1.70;;
15629;SDS011;7914;50.842;0.166;2023-04-25T13:58:29;5.10;;;1.42;;
15629;SDS011;7914;50.842;0.166;2023-04-25T14:00:55;10.88;;;1.73;;
15629;SDS011;7914;50.842;0.166;2023-04-25T14:03:21;11.05;;;1.80;;
15629;SDS011;7914;50.842;0.166;2023-04-25T14:05:47;8.50;;;2.00;;
15629;SDS011;7914;50.842;0.166;2023-04-25T14:08:12;5.40;;;1.67;;
15629;SDS011;7914;50.842;0.166;2023-04-25T14:10:38;5.43;;;1.50;;
15629;SDS011;7914;50.842;0.166;2023-04-25T14:13:04;5.47;;;1.60;;
15629;SDS011;7914;50.842;0.166;2023-04-25T14:15:33;6.90;;;1.67;;
15629;SDS011;7914;50.842;0.166;2023-04-25T14:18:00;6.85;;;1.98;;
15629;SDS011;7914;50.842;0.166;2023-04-25T14:20:26;5.75;;;1.73;;
15629;SDS011;7914;50.842;0.166;2023-04-25T14:22:52;7.07;;;1.48;;
15629;SDS011;7914;50.842;0.166;2023-04-25T14:25:19;7.47;;;1.73;;
15629;SDS011;7914;50.842;0.166;2023-04-25T14:27:46;5.90;;;1.50;;
15629;SDS011;7914;50.842;0.166;2023-04-25T14:30:14;5.85;;;1.65;;
15629;SDS011;7914;50.842;0.166;2023-04-25T14:32:41;6.57;;;1.77;;
15629;SDS011;7914;50.842;0.166;2023-04-25T14:35:07;7.15;;;1.60;;
15629;SDS011;7914;50.842;0.166;2023-04-25T14:37:33;9.75;;;3.40;;
15629;SDS011;7914;50.842;0.166;2023-04-25T14:39:58;6.88;;;1.83;;
15629;SDS011;7914;50.842;0.166;2023-04-25T14:42:24;5.07;;;1.48;;
15629;SDS011;7914;50.842;0.166;2023-04-25T14:44:50;4.93;;;1.40;;
15629;SDS011;7914;50.842;0.166;2023-04-25T14:47:16;7.50;;;1.38;;
15629;SDS011;7914;50.842;0.166;2023-04-25T14:49:42;4.10;;;1.38;;
15629;SDS011;7914;50.842;0.166;2023-04-25T14:52:08;7.75;;;1.73;;
15629;SDS011;7914;50.842;0.166;2023-04-25T14:54:34;8.05;;;1.75;;
15629;SDS011;7914;50.842;0.166;2023-04-25T14:57:00;5.50;;;1.80;;
15629;SDS011;7914;50.842;0.166;2023-04-25T14:59:26;8.18;;;2.60;;
15629;SDS011;7914;50.842;0.166;2023-04-25T15:01:53;8.73;;;1.50;;
15629;SDS011;7914;50.842;0.166;2023-04-25T15:04:18;6.40;;;1.83;;
15629;SDS011;7914;50.842;0.166;2023-04-25T15:06:44;5.43;;;1.75;;
15629;SDS011;7914;50.842;0.166;2023-04-25T15:09:11;8.73;;;1.90;;
15629;SDS011;7914;50.842;0.166;2023-04-25T15:11:37;5.40;;;1.70;;
15629;SDS011;7914;50.842;0.166;2023-04-25T15:14:03;8.18;;;1.70;;
15629;SDS011;7914;50.842;0.166;2023-04-25T15:16:28;7.97;;;1.65;;